Innsbruck Airport LOWI

Flugplatz Daten

Name: Innsbruck Airport

Ident: LOWI

Lat: 47,2602005

Long: 11,34399986

Platzhöhe: 1906 ft

IataCode: INN

City: Innsbruck

Metar

2021/10/25 18:20
LOWI 251820Z VRB02KT CAVOK 05/03 Q1022 NOSIG

Taf

2021/10/25 18:21
TAF LOWI 251715Z 2518/2618 27004KT 9999 FEW060 TX13/2614Z TN02/2606Z
TEMPO 2612/2618 -SHRA

Webcams

Gewünschte Webcam nicht vorhanden? Dann fügen Sie eine hinzu. Sie wird dann so schnell wie möglich freigeschaltet
Url: Title: